sensor_id;sensor_type;location;lat;lon;timestamp;temperature;humidity
28546;DHT22;15749;49.606;8.738;2023-08-06T00:00:51;22.60;99.90
28546;DHT22;15749;49.606;8.738;2023-08-06T00:03:20;22.60;99.90
28546;DHT22;15749;49.606;8.738;2023-08-06T00:05:49;22.60;99.90
28546;DHT22;15749;49.606;8.738;2023-08-06T00:08:18;22.60;99.90
28546;DHT22;15749;49.606;8.738;2023-08-06T00:10:48;22.60;99.90
28546;DHT22;15749;49.606;8.738;2023-08-06T00:13:17;22.60;99.90
28546;DHT22;15749;49.606;8.738;2023-08-06T00:15:47;22.60;99.90
28546;DHT22;15749;49.606;8.738;2023-08-06T00:18:16;22.60;99.90
28546;DHT22;15749;49.606;8.738;2023-08-06T00:20:45;22.60;99.90
28546;DHT22;15749;49.606;8.738;2023-08-06T00:23:14;22.60;99.90
28546;DHT22;15749;49.606;8.738;2023-08-06T00:25:44;22.60;99.90
28546;DHT22;15749;49.606;8.738;2023-08-06T00:28:31;22.60;99.90
28546;DHT22;15749;49.606;8.738;2023-08-06T00:31:01;22.60;99.90
28546;DHT22;15749;49.606;8.738;2023-08-06T00:33:31;22.60;99.90
28546;DHT22;15749;49.606;8.738;2023-08-06T00:36:00;22.60;99.90
28546;DHT22;15749;49.606;8.738;2023-08-06T00:38:29;22.60;99.90
28546;DHT22;15749;49.606;8.738;2023-08-06T00:40:58;22.60;99.90
28546;DHT22;15749;49.606;8.738;2023-08-06T00:43:28;22.60;99.90
28546;DHT22;15749;49.606;8.738;2023-08-06T00:45:57;22.60;99.90
28546;DHT22;15749;49.606;8.738;2023-08-06T00:48:27;22.60;99.90
28546;DHT22;15749;49.606;8.738;2023-08-06T00:50:56;22.60;99.90
28546;DHT22;15749;49.606;8.738;2023-08-06T00:53:26;22.50;99.90
28546;DHT22;15749;49.606;8.738;2023-08-06T00:55:55;22.50;99.90
28546;DHT22;15749;49.606;8.738;2023-08-06T00:58:26;22.50;99.90
28546;DHT22;15749;49.606;8.738;2023-08-06T01:00:55;22.50;99.90
28546;DHT22;15749;49.606;8.738;2023-08-06T01:03:26;22.50;99.90
28546;DHT22;15749;49.606;8.738;2023-08-06T01:05:55;22.50;99.90
28546;DHT22;15749;49.606;8.738;2023-08-06T01:08:32;22.50;99.90
28546;DHT22;15749;49.606;8.738;2023-08-06T01:11:14;22.50;99.90
28546;DHT22;15749;49.606;8.738;2023-08-06T01:13:50;22.50;99.90
28546;DHT22;15749;49.606;8.738;2023-08-06T01:16:24;22.50;99.90
28546;DHT22;15749;49.606;8.738;2023-08-06T01:18:54;22.50;99.90
28546;DHT22;15749;49.606;8.738;2023-08-06T01:21:25;22.40;99.90
28546;DHT22;15749;49.606;8.738;2023-08-06T01:23:54;22.50;99.90
28546;DHT22;15749;49.606;8.738;2023-08-06T01:26:29;22.40;99.90
28546;DHT22;15749;49.606;8.738;2023-08-06T01:29:06;22.40;99.90
28546;DHT22;15749;49.606;8.738;2023-08-06T01:31:39;22.40;99.90
28546;DHT22;15749;49.606;8.738;2023-08-06T01:34:17;22.40;99.90
28546;DHT22;15749;49.606;8.738;2023-08-06T01:36:50;22.40;99.90
28546;DHT22;15749;49.606;8.738;2023-08-06T01:39:20;22.40;99.90
28546;DHT22;15749;49.606;8.738;2023-08-06T01:41:49;22.40;99.90
28546;DHT22;15749;49.606;8.738;2023-08-06T01:44:21;22.40;99.90
28546;DHT22;15749;49.606;8.738;2023-08-06T01:46:50;22.40;99.90
28546;DHT22;15749;49.606;8.738;2023-08-06T01:49:19;22.30;99.90
28546;DHT22;15749;49.606;8.738;2023-08-06T01:51:50;22.30;99.90
28546;DHT22;15749;49.606;8.738;2023-08-06T01:54:19;22.30;99.90
28546;DHT22;15749;49.606;8.738;2023-08-06T01:56:48;22.30;99.90
28546;DHT22;15749;49.606;8.738;2023-08-06T01:59:17;22.30;99.90
28546;DHT22;15749;49.606;8.738;2023-08-06T02:01:46;22.30;99.90
28546;DHT22;15749;49.606;8.738;2023-08-06T02:04:15;22.30;99.90
28546;DHT22;15749;49.606;8.738;2023-08-06T02:06:44;22.30;99.90
28546;DHT22;15749;49.606;8.738;2023-08-06T02:09:15;22.30;99.90
28546;DHT22;15749;49.606;8.738;2023-08-06T02:11:44;22.20;99.90
28546;DHT22;15749;49.606;8.738;2023-08-06T02:14:13;22.20;99.90
28546;DHT22;15749;49.606;8.738;2023-08-06T02:16:42;22.20;99.90
28546;DHT22;15749;49.606;8.738;2023-08-06T02:19:11;22.20;99.90
28546;DHT22;15749;49.606;8.738;2023-08-06T02:21:41;22.20;99.90
28546;DHT22;15749;49.606;8.738;2023-08-06T02:24:10;22.20;99.90
28546;DHT22;15749;49.606;8.738;2023-08-06T02:26:41;22.20;99.90
28546;DHT22;15749;49.606;8.738;2023-08-06T02:29:10;22.20;99.90
28546;DHT22;15749;49.606;8.738;2023-08-06T02:31:42;22.20;99.90
28546;DHT22;15749;49.606;8.738;2023-08-06T02:34:11;22.20;99.90
28546;DHT22;15749;49.606;8.738;2023-08-06T02:36:40;22.20;99.90
28546;DHT22;15749;49.606;8.738;2023-08-06T02:39:09;22.10;99.90
28546;DHT22;15749;49.606;8.738;2023-08-06T02:41:38;22.10;99.90
28546;DHT22;15749;49.606;8.738;2023-08-06T02:44:08;22.10;99.90
28546;DHT22;15749;49.606;8.738;2023-08-06T02:46:37;22.10;99.90
28546;DHT22;15749;49.606;8.738;2023-08-06T02:49:06;22.10;99.90
28546;DHT22;15749;49.606;8.738;2023-08-06T02:51:36;22.10;99.90
28546;DHT22;15749;49.606;8.738;2023-08-06T02:54:05;22.00;99.90
28546;DHT22;15749;49.606;8.738;2023-08-06T02:56:35;22.00;99.90
28546;DHT22;15749;49.606;8.738;2023-08-06T02:59:19;22.00;99.90
28546;DHT22;15749;49.606;8.738;2023-08-06T03:02:01;22.00;99.90
28546;DHT22;15749;49.606;8.738;2023-08-06T03:04:45;22.00;99.90
28546;DHT22;15749;49.606;8.738;2023-08-06T03:07:15;22.00;99.90
28546;DHT22;15749;49.606;8.738;2023-08-06T03:09:52;22.00;99.90
28546;DHT22;15749;49.606;8.738;2023-08-06T03:12:21;22.00;99.90
28546;DHT22;15749;49.606;8.738;2023-08-06T03:14:52;22.00;99.90
28546;DHT22;15749;49.606;8.738;2023-08-06T03:17:21;22.00;99.90
28546;DHT22;15749;49.606;8.738;2023-08-06T03:19:50;21.90;99.90
28546;DHT22;15749;49.606;8.738;2023-08-06T03:22:20;21.90;99.90
28546;DHT22;15749;49.606;8.738;2023-08-06T03:24:50;21.90;99.90
28546;DHT22;15749;49.606;8.738;2023-08-06T03:27:22;21.90;99.90
28546;DHT22;15749;49.606;8.738;2023-08-06T03:29:54;21.90;99.90
28546;DHT22;15749;49.606;8.738;2023-08-06T03:32:26;21.90;99.90
28546;DHT22;15749;49.606;8.738;2023-08-06T03:34:56;21.90;99.90
28546;DHT22;15749;49.606;8.738;2023-08-06T03:37:28;21.90;99.90
28546;DHT22;15749;49.606;8.738;2023-08-06T03:39:57;21.80;99.90
28546;DHT22;15749;49.606;8.738;2023-08-06T03:42:26;21.80;99.90
28546;DHT22;15749;49.606;8.738;2023-08-06T03:44:57;21.80;99.90
28546;DHT22;15749;49.606;8.738;2023-08-06T03:47:26;21.80;99.90
28546;DHT22;15749;49.606;8.738;2023-08-06T03:49:55;21.80;99.90
28546;DHT22;15749;49.606;8.738;2023-08-06T03:52:25;21.80;99.90
28546;DHT22;15749;49.606;8.738;2023-08-06T03:54:54;21.80;99.90
28546;DHT22;15749;49.606;8.738;2023-08-06T03:57:22;21.80;99.90
28546;DHT22;15749;49.606;8.738;2023-08-06T03:59:51;21.70;99.90
28546;DHT22;15749;49.606;8.738;2023-08-06T04:02:26;21.70;99.90
28546;DHT22;15749;49.606;8.738;2023-08-06T04:04:55;21.70;99.90
28546;DHT22;15749;49.606;8.738;2023-08-06T04:07:24;21.70;99.90
28546;DHT22;15749;49.606;8.738;2023-08-06T04:09:57;21.60;99.90
28546;DHT22;15749;49.606;8.738;2023-08-06T04:12:27;21.70;99.90
28546;DHT22;15749;49.606;8.738;2023-08-06T04:15:00;21.70;99.90
28546;DHT22;15749;49.606;8.738;2023-08-06T04:17:31;21.70;99.90
28546;DHT22;15749;49.606;8.738;2023-08-06T04:20:00;21.60;99.90
28546;DHT22;15749;49.606;8.738;2023-08-06T04:22:30;21.70;99.90
28546;DHT22;15749;49.606;8.738;2023-08-06T04:24:59;21.70;99.90
28546;DHT22;15749;49.606;8.738;2023-08-06T04:27:28;21.70;99.90
28546;DHT22;15749;49.606;8.738;2023-08-06T04:29:57;21.70;99.90
28546;DHT22;15749;49.606;8.738;2023-08-06T04:32:27;21.60;99.90
28546;DHT22;15749;49.606;8.738;2023-08-06T04:34:58;21.60;99.90
28546;DHT22;15749;49.606;8.738;2023-08-06T04:37:27;21.60;99.90
28546;DHT22;15749;49.606;8.738;2023-08-06T04:39:56;21.60;99.90
28546;DHT22;15749;49.606;8.738;2023-08-06T04:42:25;21.60;99.90
28546;DHT22;15749;49.606;8.738;2023-08-06T04:44:54;21.60;99.90
28546;DHT22;15749;49.606;8.738;2023-08-06T04:47:23;21.60;99.90
28546;DHT22;15749;49.606;8.738;2023-08-06T04:49:53;21.60;99.90
28546;DHT22;15749;49.606;8.738;2023-08-06T04:52:24;21.60;99.90
28546;DHT22;15749;49.606;8.738;2023-08-06T04:54:58;21.60;99.90
28546;DHT22;15749;49.606;8.738;2023-08-06T04:57:27;21.50;99.90
28546;DHT22;15749;49.606;8.738;2023-08-06T04:59:56;21.50;99.90
28546;DHT22;15749;49.606;8.738;2023-08-06T05:02:25;21.50;99.90
28546;DHT22;15749;49.606;8.738;2023-08-06T05:04:54;21.50;99.90
28546;DHT22;15749;49.606;8.738;2023-08-06T05:07:25;21.50;99.90
28546;DHT22;15749;49.606;8.738;2023-08-06T05:09:54;21.50;99.90
28546;DHT22;15749;49.606;8.738;2023-08-06T05:12:23;21.50;99.90
28546;DHT22;15749;49.606;8.738;2023-08-06T05:14:52;21.40;99.90
28546;DHT22;15749;49.606;8.738;2023-08-06T05:17:21;21.40;99.90
28546;DHT22;15749;49.606;8.738;2023-08-06T05:19:53;21.40;99.90
28546;DHT22;15749;49.606;8.738;2023-08-06T05:22:27;21.40;99.90
28546;DHT22;15749;49.606;8.738;2023-08-06T05:24:58;21.40;99.90
28546;DHT22;15749;49.606;8.738;2023-08-06T05:27:27;21.40;99.90
28546;DHT22;15749;49.606;8.738;2023-08-06T05:29:56;21.30;99.90
28546;DHT22;15749;49.606;8.738;2023-08-06T05:32:25;21.30;99.90
28546;DHT22;15749;49.606;8.738;2023-08-06T05:34:54;21.30;99.90
28546;DHT22;15749;49.606;8.738;2023-08-06T05:37:24;21.30;99.90
28546;DHT22;15749;49.606;8.738;2023-08-06T05:39:54;21.30;99.90
28546;DHT22;15749;49.606;8.738;2023-08-06T05:42:23;21.30;99.90
28546;DHT22;15749;49.606;8.738;2023-08-06T05:44:54;21.30;99.90
28546;DHT22;15749;49.606;8.738;2023-08-06T05:47:23;21.30;99.90
28546;DHT22;15749;49.606;8.738;2023-08-06T05:49:52;21.30;99.90
28546;DHT22;15749;49.606;8.738;2023-08-06T05:52:21;21.20;99.90
28546;DHT22;15749;49.606;8.738;2023-08-06T05:54:51;21.20;99.90
28546;DHT22;15749;49.606;8.738;2023-08-06T05:57:21;21.20;99.90
28546;DHT22;15749;49.606;8.738;2023-08-06T05:59:53;21.20;99.90
28546;DHT22;15749;49.606;8.738;2023-08-06T06:02:22;21.20;99.90
28546;DHT22;15749;49.606;8.738;2023-08-06T06:04:51;21.20;99.90
28546;DHT22;15749;49.606;8.738;2023-08-06T06:07:20;21.20;99.90
28546;DHT22;15749;49.606;8.738;2023-08-06T06:09:49;21.20;99.90
28546;DHT22;15749;49.606;8.738;2023-08-06T06:12:18;21.20;99.90
28546;DHT22;15749;49.606;8.738;2023-08-06T06:14:51;21.20;99.90
28546;DHT22;15749;49.606;8.738;2023-08-06T06:17:20;21.20;99.90
28546;DHT22;15749;49.606;8.738;2023-08-06T06:19:50;21.20;99.90
28546;DHT22;15749;49.606;8.738;2023-08-06T06:22:19;21.20;99.90
28546;DHT22;15749;49.606;8.738;2023-08-06T06:24:48;21.10;99.90
28546;DHT22;15749;49.606;8.738;2023-08-06T06:27:20;21.10;99.90
28546;DHT22;15749;49.606;8.738;2023-08-06T06:29:54;21.10;99.90
28546;DHT22;15749;49.606;8.738;2023-08-06T06:32:23;21.10;99.90
28546;DHT22;15749;49.606;8.738;2023-08-06T06:34:52;21.10;99.90
28546;DHT22;15749;49.606;8.738;2023-08-06T06:37:22;21.10;99.90
28546;DHT22;15749;49.606;8.738;2023-08-06T06:39:51;21.10;99.90
28546;DHT22;15749;49.606;8.738;2023-08-06T06:42:20;21.10;99.90
28546;DHT22;15749;49.606;8.738;2023-08-06T06:44:54;21.00;99.90
28546;DHT22;15749;49.606;8.738;2023-08-06T06:47:23;21.00;99.90
28546;DHT22;15749;49.606;8.738;2023-08-06T06:49:52;21.00;99.90
28546;DHT22;15749;49.606;8.738;2023-08-06T06:52:22;21.00;99.90
28546;DHT22;15749;49.606;8.738;2023-08-06T06:54:51;21.00;99.90
28546;DHT22;15749;49.606;8.738;2023-08-06T06:57:20;21.00;99.90
28546;DHT22;15749;49.606;8.738;2023-08-06T06:59:49;21.00;99.90
28546;DHT22;15749;49.606;8.738;2023-08-06T07:02:20;21.00;99.90
28546;DHT22;15749;49.606;8.738;2023-08-06T07:04:51;21.00;99.90
28546;DHT22;15749;49.606;8.738;2023-08-06T07:07:21;20.90;99.90
28546;DHT22;15749;49.606;8.738;2023-08-06T07:09:50;21.00;99.90
28546;DHT22;15749;49.606;8.738;2023-08-06T07:12:19;20.90;99.90
28546;DHT22;15749;49.606;8.738;2023-08-06T07:14:52;20.90;99.90
28546;DHT22;15749;49.606;8.738;2023-08-06T07:17:22;20.90;99.90
28546;DHT22;15749;49.606;8.738;2023-08-06T07:19:51;20.90;99.90
28546;DHT22;15749;49.606;8.738;2023-08-06T07:22:24;20.90;99.90
28546;DHT22;15749;49.606;8.738;2023-08-06T07:24:53;20.90;99.90
28546;DHT22;15749;49.606;8.738;2023-08-06T07:27:22;20.80;99.90
28546;DHT22;15749;49.606;8.738;2023-08-06T07:29:51;20.80;99.90
28546;DHT22;15749;49.606;8.738;2023-08-06T07:32:22;20.90;99.90
28546;DHT22;15749;49.606;8.738;2023-08-06T07:34:51;20.90;99.90
28546;DHT22;15749;49.606;8.738;2023-08-06T07:37:24;20.90;99.90
28546;DHT22;15749;49.606;8.738;2023-08-06T07:39:53;20.90;99.90
28546;DHT22;15749;49.606;8.738;2023-08-06T07:42:22;20.90;99.90
28546;DHT22;15749;49.606;8.738;2023-08-06T07:44:53;20.90;99.90
28546;DHT22;15749;49.606;8.738;2023-08-06T07:47:24;20.90;99.90
28546;DHT22;15749;49.606;8.738;2023-08-06T07:49:53;20.90;99.90
28546;DHT22;15749;49.606;8.738;2023-08-06T07:52:22;20.90;99.90
28546;DHT22;15749;49.606;8.738;2023-08-06T07:54:51;20.90;99.90
28546;DHT22;15749;49.606;8.738;2023-08-06T07:57:20;20.90;99.90
28546;DHT22;15749;49.606;8.738;2023-08-06T07:59:49;20.90;99.90
28546;DHT22;15749;49.606;8.738;2023-08-06T08:02:19;20.90;99.90
28546;DHT22;15749;49.606;8.738;2023-08-06T08:04:49;20.90;99.90
28546;DHT22;15749;49.606;8.738;2023-08-06T08:07:19;20.90;99.90
28546;DHT22;15749;49.606;8.738;2023-08-06T08:09:48;20.90;99.90
28546;DHT22;15749;49.606;8.738;2023-08-06T08:12:17;20.90;99.90
28546;DHT22;15749;49.606;8.738;2023-08-06T08:14:46;20.90;99.90
28546;DHT22;15749;49.606;8.738;2023-08-06T08:17:17;20.90;99.90
28546;DHT22;15749;49.606;8.738;2023-08-06T08:19:46;20.90;99.90
28546;DHT22;15749;49.606;8.738;2023-08-06T08:22:17;20.90;99.90
28546;DHT22;15749;49.606;8.738;2023-08-06T08:24:46;20.90;99.90
28546;DHT22;15749;49.606;8.738;2023-08-06T08:27:15;20.90;99.90
28546;DHT22;15749;49.606;8.738;2023-08-06T08:29:44;20.90;99.90
28546;DHT22;15749;49.606;8.738;2023-08-06T08:32:13;20.90;99.90
28546;DHT22;15749;49.606;8.738;2023-08-06T08:34:42;21.00;99.90
28546;DHT22;15749;49.606;8.738;2023-08-06T08:37:12;21.00;99.90
28546;DHT22;15749;49.606;8.738;2023-08-06T08:39:43;21.00;99.90
28546;DHT22;15749;49.606;8.738;2023-08-06T08:42:13;21.00;99.90
28546;DHT22;15749;49.606;8.738;2023-08-06T08:44:42;21.00;99.90
28546;DHT22;15749;49.606;8.738;2023-08-06T08:47:13;21.00;99.90
28546;DHT22;15749;49.606;8.738;2023-08-06T08:49:46;21.00;99.90
28546;DHT22;15749;49.606;8.738;2023-08-06T08:52:17;21.00;99.90
28546;DHT22;15749;49.606;8.738;2023-08-06T08:54:50;21.10;99.90
28546;DHT22;15749;49.606;8.738;2023-08-06T08:57:20;21.10;99.90
28546;DHT22;15749;49.606;8.738;2023-08-06T08:59:50;21.10;99.90
28546;DHT22;15749;49.606;8.738;2023-08-06T09:02:21;21.10;99.90
28546;DHT22;15749;49.606;8.738;2023-08-06T09:04:52;21.10;99.90
28546;DHT22;15749;49.606;8.738;2023-08-06T09:07:23;21.10;99.90
28546;DHT22;15749;49.606;8.738;2023-08-06T09:09:54;21.10;99.90
28546;DHT22;15749;49.606;8.738;2023-08-06T09:12:24;21.10;99.90
28546;DHT22;15749;49.606;8.738;2023-08-06T09:14:54;21.10;99.90
28546;DHT22;15749;49.606;8.738;2023-08-06T09:17:23;21.10;99.90
28546;DHT22;15749;49.606;8.738;2023-08-06T09:19:52;21.10;99.90
28546;DHT22;15749;49.606;8.738;2023-08-06T09:22:21;21.10;99.90
28546;DHT22;15749;49.606;8.738;2023-08-06T09:24:50;21.10;99.90
28546;DHT22;15749;49.606;8.738;2023-08-06T09:27:22;21.10;99.90
28546;DHT22;15749;49.606;8.738;2023-08-06T09:29:52;21.20;99.90
28546;DHT22;15749;49.606;8.738;2023-08-06T09:32:21;21.20;99.90
28546;DHT22;15749;49.606;8.738;2023-08-06T09:34:55;21.20;99.90
28546;DHT22;15749;49.606;8.738;2023-08-06T09:37:27;21.20;99.90
28546;DHT22;15749;49.606;8.738;2023-08-06T09:40:25;21.20;99.90
28546;DHT22;15749;49.606;8.738;2023-08-06T09:42:57;21.20;99.90
28546;DHT22;15749;49.606;8.738;2023-08-06T09:45:30;21.20;99.90
28546;DHT22;15749;49.606;8.738;2023-08-06T09:48:03;21.20;99.90
28546;DHT22;15749;49.606;8.738;2023-08-06T09:50:34;21.20;99.90
28546;DHT22;15749;49.606;8.738;2023-08-06T09:53:07;21.30;99.90
28546;DHT22;15749;49.606;8.738;2023-08-06T09:55:37;21.30;99.90
28546;DHT22;15749;49.606;8.738;2023-08-06T09:58:09;21.30;99.90
28546;DHT22;15749;49.606;8.738;2023-08-06T10:00:38;21.30;99.90
28546;DHT22;15749;49.606;8.738;2023-08-06T10:03:08;21.30;99.90
28546;DHT22;15749;49.606;8.738;2023-08-06T10:05:41;21.30;99.90
28546;DHT22;15749;49.606;8.738;2023-08-06T10:08:15;21.30;99.90
28546;DHT22;15749;49.606;8.738;2023-08-06T10:10:45;21.30;99.90
28546;DHT22;15749;49.606;8.738;2023-08-06T10:13:17;21.30;99.90
28546;DHT22;15749;49.606;8.738;2023-08-06T10:15:48;21.40;99.90
28546;DHT22;15749;49.606;8.738;2023-08-06T10:18:20;21.30;99.90
28546;DHT22;15749;49.606;8.738;2023-08-06T10:20:50;21.40;99.90
28546;DHT22;15749;49.606;8.738;2023-08-06T10:23:19;21.40;99.90
28546;DHT22;15749;49.606;8.738;2023-08-06T10:25:53;21.40;99.90
28546;DHT22;15749;49.606;8.738;2023-08-06T10:28:34;21.40;99.90
28546;DHT22;15749;49.606;8.738;2023-08-06T10:31:04;21.50;99.90
28546;DHT22;15749;49.606;8.738;2023-08-06T10:33:43;21.40;99.90
28546;DHT22;15749;49.606;8.738;2023-08-06T10:36:14;21.40;99.90
28546;DHT22;15749;49.606;8.738;2023-08-06T10:38:45;21.50;99.90
28546;DHT22;15749;49.606;8.738;2023-08-06T10:41:22;21.50;99.90
28546;DHT22;15749;49.606;8.738;2023-08-06T10:44:07;21.50;99.90
28546;DHT22;15749;49.606;8.738;2023-08-06T10:46:37;21.50;99.90
28546;DHT22;15749;49.606;8.738;2023-08-06T10:49:06;21.50;99.90
28546;DHT22;15749;49.606;8.738;2023-08-06T10:51:36;21.50;99.90
28546;DHT22;15749;49.606;8.738;2023-08-06T10:54:05;21.50;99.90
28546;DHT22;15749;49.606;8.738;2023-08-06T10:56:40;21.50;99.90
28546;DHT22;15749;49.606;8.738;2023-08-06T10:59:15;21.50;99.90
28546;DHT22;15749;49.606;8.738;2023-08-06T11:01:44;21.50;99.90
28546;DHT22;15749;49.606;8.738;2023-08-06T11:04:14;21.50;99.90
28546;DHT22;15749;49.606;8.738;2023-08-06T11:06:52;21.50;99.90
28546;DHT22;15749;49.606;8.738;2023-08-06T11:09:21;21.50;99.90
28546;DHT22;15749;49.606;8.738;2023-08-06T11:11:51;21.50;99.90
28546;DHT22;15749;49.606;8.738;2023-08-06T11:14:22;21.50;99.90
28546;DHT22;15749;49.606;8.738;2023-08-06T11:16:52;21.50;99.90
28546;DHT22;15749;49.606;8.738;2023-08-06T11:19:22;21.40;99.90
28546;DHT22;15749;49.606;8.738;2023-08-06T11:21:52;21.50;99.90
28546;DHT22;15749;49.606;8.738;2023-08-06T11:24:23;21.50;99.90
28546;DHT22;15749;49.606;8.738;2023-08-06T11:26:53;21.50;99.90
28546;DHT22;15749;49.606;8.738;2023-08-06T11:29:24;21.50;99.90
28546;DHT22;15749;49.606;8.738;2023-08-06T11:32:03;21.50;99.90
28546;DHT22;15749;49.606;8.738;2023-08-06T11:34:33;21.50;99.90
28546;DHT22;15749;49.606;8.738;2023-08-06T11:37:03;21.40;99.90
28546;DHT22;15749;49.606;8.738;2023-08-06T11:39:35;21.40;99.90
28546;DHT22;15749;49.606;8.738;2023-08-06T11:42:06;21.40;99.90
28546;DHT22;15749;49.606;8.738;2023-08-06T11:44:37;21.30;99.90
28546;DHT22;15749;49.606;8.738;2023-08-06T11:47:12;21.30;99.90
28546;DHT22;15749;49.606;8.738;2023-08-06T11:49:45;21.30;99.90
28546;DHT22;15749;49.606;8.738;2023-08-06T11:52:17;21.30;99.90
28546;DHT22;15749;49.606;8.738;2023-08-06T11:54:59;21.20;99.90
28546;DHT22;15749;49.606;8.738;2023-08-06T11:57:31;21.20;99.90
28546;DHT22;15749;49.606;8.738;2023-08-06T12:00:05;21.20;99.90
28546;DHT22;15749;49.606;8.738;2023-08-06T12:02:44;21.20;99.90
28546;DHT22;15749;49.606;8.738;2023-08-06T12:05:15;21.20;99.90
28546;DHT22;15749;49.606;8.738;2023-08-06T12:07:46;21.10;99.90
28546;DHT22;15749;49.606;8.738;2023-08-06T12:10:17;21.10;99.90
28546;DHT22;15749;49.606;8.738;2023-08-06T12:12:48;21.10;99.90
28546;DHT22;15749;49.606;8.738;2023-08-06T12:15:19;21.10;99.90
28546;DHT22;15749;49.606;8.738;2023-08-06T12:17:49;21.10;99.90
28546;DHT22;15749;49.606;8.738;2023-08-06T12:20:19;21.00;99.90
28546;DHT22;15749;49.606;8.738;2023-08-06T12:22:49;21.00;99.90
28546;DHT22;15749;49.606;8.738;2023-08-06T12:25:18;21.00;99.90
28546;DHT22;15749;49.606;8.738;2023-08-06T12:27:48;21.00;99.90
28546;DHT22;15749;49.606;8.738;2023-08-06T12:30:19;21.00;99.90
28546;DHT22;15749;49.606;8.738;2023-08-06T12:32:48;21.00;99.90
28546;DHT22;15749;49.606;8.738;2023-08-06T12:35:19;20.90;99.90
28546;DHT22;15749;49.606;8.738;2023-08-06T12:37:49;20.90;99.90
28546;DHT22;15749;49.606;8.738;2023-08-06T12:40:22;20.90;99.90
28546;DHT22;15749;49.606;8.738;2023-08-06T12:43:03;20.90;99.90
28546;DHT22;15749;49.606;8.738;2023-08-06T12:45:34;20.90;99.90
28546;DHT22;15749;49.606;8.738;2023-08-06T12:48:04;20.80;99.90
28546;DHT22;15749;49.606;8.738;2023-08-06T12:50:33;20.80;99.90
28546;DHT22;15749;49.606;8.738;2023-08-06T12:53:03;20.80;99.90
28546;DHT22;15749;49.606;8.738;2023-08-06T12:55:41;20.80;99.90
28546;DHT22;15749;49.606;8.738;2023-08-06T12:58:11;20.80;99.90
28546;DHT22;15749;49.606;8.738;2023-08-06T13:00:42;20.70;99.90
28546;DHT22;15749;49.606;8.738;2023-08-06T13:03:12;20.70;99.90
28546;DHT22;15749;49.606;8.738;2023-08-06T13:05:41;20.70;99.90
28546;DHT22;15749;49.606;8.738;2023-08-06T13:08:12;20.70;99.90
28546;DHT22;15749;49.606;8.738;2023-08-06T13:10:41;20.70;99.90
28546;DHT22;15749;49.606;8.738;2023-08-06T13:13:10;20.70;99.90
28546;DHT22;15749;49.606;8.738;2023-08-06T13:15:41;20.60;99.90
28546;DHT22;15749;49.606;8.738;2023-08-06T13:18:11;20.60;99.90
28546;DHT22;15749;49.606;8.738;2023-08-06T13:20:40;20.60;99.90
28546;DHT22;15749;49.606;8.738;2023-08-06T13:23:10;20.60;99.90
28546;DHT22;15749;49.606;8.738;2023-08-06T13:25:40;20.60;99.90
28546;DHT22;15749;49.606;8.738;2023-08-06T13:28:09;20.50;99.90
28546;DHT22;15749;49.606;8.738;2023-08-06T13:30:39;20.50;99.90
28546;DHT22;15749;49.606;8.738;2023-08-06T13:33:11;20.50;99.90
28546;DHT22;15749;49.606;8.738;2023-08-06T13:35:41;20.50;99.90
28546;DHT22;15749;49.606;8.738;2023-08-06T13:38:10;20.50;99.90
28546;DHT22;15749;49.606;8.738;2023-08-06T13:40:40;20.50;99.90
28546;DHT22;15749;49.606;8.738;2023-08-06T13:43:10;20.50;99.90
28546;DHT22;15749;49.606;8.738;2023-08-06T13:45:39;20.50;99.90
28546;DHT22;15749;49.606;8.738;2023-08-06T13:48:10;20.50;99.90
28546;DHT22;15749;49.606;8.738;2023-08-06T13:50:40;20.50;99.90
28546;DHT22;15749;49.606;8.738;2023-08-06T13:53:09;20.50;99.90
28546;DHT22;15749;49.606;8.738;2023-08-06T13:55:39;20.50;99.90
28546;DHT22;15749;49.606;8.738;2023-08-06T13:58:08;20.50;99.90
28546;DHT22;15749;49.606;8.738;2023-08-06T14:00:38;20.50;99.90
28546;DHT22;15749;49.606;8.738;2023-08-06T14:03:08;20.50;99.90
28546;DHT22;15749;49.606;8.738;2023-08-06T14:05:39;20.50;99.90
28546;DHT22;15749;49.606;8.738;2023-08-06T14:08:08;20.50;99.90
28546;DHT22;15749;49.606;8.738;2023-08-06T14:10:38;20.50;99.90
28546;DHT22;15749;49.606;8.738;2023-08-06T14:13:07;20.50;99.90
28546;DHT22;15749;49.606;8.738;2023-08-06T14:15:38;20.50;99.90
28546;DHT22;15749;49.606;8.738;2023-08-06T14:18:10;20.50;99.90
28546;DHT22;15749;49.606;8.738;2023-08-06T14:20:40;20.50;99.90
28546;DHT22;15749;49.606;8.738;2023-08-06T14:23:10;20.50;99.90
28546;DHT22;15749;49.606;8.738;2023-08-06T14:25:40;20.50;99.90
28546;DHT22;15749;49.606;8.738;2023-08-06T14:28:10;20.50;99.90
28546;DHT22;15749;49.606;8.738;2023-08-06T14:30:40;20.50;99.90
28546;DHT22;15749;49.606;8.738;2023-08-06T14:33:09;20.50;99.90
28546;DHT22;15749;49.606;8.738;2023-08-06T14:35:55;20.50;99.90
28546;DHT22;15749;49.606;8.738;2023-08-06T14:38:24;20.50;99.90
28546;DHT22;15749;49.606;8.738;2023-08-06T14:40:54;20.50;99.90
28546;DHT22;15749;49.606;8.738;2023-08-06T14:43:26;20.50;99.90
28546;DHT22;15749;49.606;8.738;2023-08-06T14:45:55;20.50;99.90
28546;DHT22;15749;49.606;8.738;2023-08-06T14:48:25;20.50;99.90
28546;DHT22;15749;49.606;8.738;2023-08-06T14:50:56;20.60;99.90
28546;DHT22;15749;49.606;8.738;2023-08-06T14:53:25;20.60;99.90
28546;DHT22;15749;49.606;8.738;2023-08-06T14:55:55;20.60;99.90
28546;DHT22;15749;49.606;8.738;2023-08-06T14:58:24;20.60;99.90
28546;DHT22;15749;49.606;8.738;2023-08-06T15:00:54;20.60;99.90
28546;DHT22;15749;49.606;8.738;2023-08-06T15:03:24;20.60;99.90
28546;DHT22;15749;49.606;8.738;2023-08-06T15:05:57;20.60;99.90
28546;DHT22;15749;49.606;8.738;2023-08-06T15:08:26;20.60;99.90
28546;DHT22;15749;49.606;8.738;2023-08-06T15:10:56;20.60;99.90
28546;DHT22;15749;49.606;8.738;2023-08-06T15:13:27;20.60;99.90
28546;DHT22;15749;49.606;8.738;2023-08-06T15:15:56;20.60;99.90
28546;DHT22;15749;49.606;8.738;2023-08-06T15:18:26;20.60;99.90
28546;DHT22;15749;49.606;8.738;2023-08-06T15:20:57;20.60;99.90
28546;DHT22;15749;49.606;8.738;2023-08-06T15:23:26;20.60;99.90
28546;DHT22;15749;49.606;8.738;2023-08-06T15:25:56;20.70;99.90
28546;DHT22;15749;49.606;8.738;2023-08-06T15:28:25;20.70;99.90
28546;DHT22;15749;49.606;8.738;2023-08-06T15:30:55;20.70;99.90
28546;DHT22;15749;49.606;8.738;2023-08-06T15:33:24;20.70;99.90
28546;DHT22;15749;49.606;8.738;2023-08-06T15:35:54;20.70;99.90
28546;DHT22;15749;49.606;8.738;2023-08-06T15:38:25;20.70;99.90
28546;DHT22;15749;49.606;8.738;2023-08-06T15:40:55;20.70;99.90
28546;DHT22;15749;49.606;8.738;2023-08-06T15:43:25;20.70;99.90
28546;DHT22;15749;49.606;8.738;2023-08-06T15:45:54;20.70;99.90
28546;DHT22;15749;49.606;8.738;2023-08-06T15:48:24;20.70;99.90
28546;DHT22;15749;49.606;8.738;2023-08-06T15:50:56;20.70;99.90